Captain Boudreaux — WDI2272 — position and weather

sailwx.info

Track history (hours):
 
Tides and Currents Weather Stations Pressure Air Temp Water Temp Dewpoint Dewpoint Depression Visibility Wind Speed Wind Dir Waves Ship Positions

Captain Boudreaux

Owner: B & J CORP, LAKE ARTHUR, LA. More information available from US FCC via Universal Licensing System and Coast Guard Vessel Documentation Center.

Last reported at 2017-Nov-24 14:29 UTC. Time now 2017-Nov-24 14:50 UTC.
Position N 29°60' W 092°47'.

Length 24 m.

Type: Tug. MMSI: 367676470.

Date/timePositionNaut miles runAvg speedWind from/ knotsBaromVisibWave heightAir tempDewpointWater temp
2017-Nov-24 14:29N 29°60' W 092°47'  
2017-Nov-18 03:51N 29°56' W 093°04'2 6.2
2017-Nov-18 03:29N 29°56' W 093°07'3 6.3
2017-Nov-18 03:00N 29°57' W 093°10'3 6.8
2017-Nov-18 02:30N 29°59' W 093°13'3 5.4
2017-Nov-18 02:00N 30°02' W 093°15'3 5.9
2017-Nov-18 01:30N 30°04' W 093°16'2 3.6
2017-Nov-18 01:00N 30°05' W 093°18'1 1.5
2017-Nov-18 00:30N 30°06' W 093°18'0 0.0
2017-Nov-18 00:00N 30°06' W 093°18'0 0.0
2017-Nov-17 23:30N 30°06' W 093°18'0 0.0
2017-Nov-17 23:00N 30°06' W 093°18'0 0.0
2017-Nov-17 22:30N 30°06' W 093°18'0 0.0
2017-Nov-17 22:00N 30°06' W 093°18'0 0.0
2017-Nov-17 21:30N 30°06' W 093°18'0 0.0
2017-Nov-17 21:00N 30°06' W 093°18'0 0.0
2017-Nov-17 20:31N 30°06' W 093°18'2 3.5
2017-Nov-17 20:00N 30°07' W 093°20'3 6.6
2017-Nov-17 19:30N 30°10' W 093°19'3 6.4
2017-Nov-17 19:00N 30°12' W 093°17'2 4.2
2017-Nov-17 18:30N 30°14' W 093°15'2 3.0
2017-Nov-17 18:00N 30°15' W 093°14'1 1.7
2017-Nov-17 17:30N 30°15' W 093°14'2 3.4
2017-Nov-17 17:00N 30°15' W 093°12'0 0.0
2017-Nov-17 16:29N 30°15' W 093°12'0 0.0
2017-Nov-17 16:01N 30°15' W 093°12'0 0.0
2017-Nov-17 15:30N 30°15' W 093°12'0 0.0
2017-Nov-17 15:00N 30°15' W 093°12'0 0.0
2017-Nov-17 14:29N 30°15' W 093°12'0 0.0
2017-Nov-17 13:59N 30°15' W 093°12'0 0.0
2017-Nov-17 13:28N 30°15' W 093°12'0 0.0
2017-Nov-17 12:53N 30°15' W 093°12'0 0.0
2017-Nov-17 12:23N 30°15' W 093°12'0 0.0
2017-Nov-17 12:00N 30°15' W 093°12'0 0.0
2017-Nov-17 11:29N 30°15' W 093°12'0 0.0
2017-Nov-17 11:01N 30°15' W 093°12'0 0.0
2017-Nov-17 10:30N 30°15' W 093°12'0 0.0
2017-Nov-17 10:00N 30°15' W 093°12'0 0.0
2017-Nov-17 09:28N 30°15' W 093°12'0 0.0
2017-Nov-17 08:58N 30°15' W 093°12'0 0.0
2017-Nov-17 08:22N 30°15' W 093°12'0 0.0
2017-Nov-17 08:00N 30°15' W 093°12'0 0.0
2017-Nov-17 07:30N 30°15' W 093°12'0 0.0
2017-Nov-17 07:00N 30°15' W 093°12'0 0.0
2017-Nov-17 06:29N 30°15' W 093°12'0 0.0
2017-Nov-17 06:00N 30°15' W 093°12'0 0.0
2017-Nov-17 05:29N 30°15' W 093°12'0 0.0
2017-Nov-17 04:56N 30°15' W 093°12'0 0.0
2017-Nov-17 04:31N 30°15' W 093°12'0 0.9
2017-Nov-17 04:00N 30°15' W 093°12'1 2.3
2017-Nov-17 03:30N 30°15' W 093°14'1 2.4
2017-Nov-17 03:00N 30°14' W 093°15'2 4.4
2017-Nov-17 02:31N 30°12' W 093°16'4 7.0
2017-Nov-17 02:00N 30°10' W 093°19'4 7.1
2017-Nov-17 01:30N 30°07' W 093°20'3 5.1
2017-Nov-17 01:01N 30°05' W 093°18'1 1.4
2017-Nov-17 00:30N 30°05' W 093°17'1 2.3
2017-Nov-17 00:01N 30°04' W 093°16'3 6.1
2017-Nov-16 23:30N 30°01' W 093°14'3 6.1
2017-Nov-16 23:00N 29°59' W 093°12'3 6.8
2017-Nov-16 22:30N 29°56' W 093°10'4 6.7
2017-Nov-16 21:52N 29°56' W 093°05'0 0.0
2017-Nov-14 20:48N 29°56' W 093°05'2 5.6
2017-Nov-14 20:27N 29°56' W 093°07'3 5.9
2017-Nov-14 20:00N 29°57' W 093°10'3 6.3
2017-Nov-14 19:30N 29°59' W 093°12'3 5.8
2017-Nov-14 19:00N 30°02' W 093°14'2 4.1
2017-Nov-14 18:30N 30°03' W 093°16'2 4.9
2017-Nov-14 18:00N 30°05' W 093°17'1 1.7
2017-Nov-14 17:30N 30°06' W 093°18'0 0.5
2017-Nov-14 17:00N 30°06' W 093°18'0 0.0
2017-Nov-14 16:30N 30°06' W 093°18'0 0.0
2017-Nov-14 16:00N 30°06' W 093°18'2 3.0
2017-Nov-14 15:30N 30°06' W 093°20'3 6.5
2017-Nov-14 15:00N 30°10' W 093°20'3 6.5
2017-Nov-14 14:30N 30°12' W 093°17'  
Track history (hours):
 
Tides and Currents Weather Stations Pressure Air Temp Water Temp Dewpoint Dewpoint Depression Visibility Wind Speed Wind Dir Waves Ship Positions

Captain Boudreaux

Owner: B & J CORP, LAKE ARTHUR, LA. More information available from US FCC via Universal Licensing System and Coast Guard Vessel Documentation Center.

Last reported at 2017-Nov-24 14:29 UTC. Time now 2017-Nov-24 14:50 UTC.
Position N 29°60' W 092°47'.

Length 24 m.

Type: Tug. MMSI: 367676470.

Date/timePositionNaut miles runAvg speedWind from/ knotsBaromVisibWave heightAir tempDewpointWater temp
2017-Nov-24 14:29N 29°60' W 092°47'  
2017-Nov-18 03:51N 29°56' W 093°04'2 6.2
2017-Nov-18 03:29N 29°56' W 093°07'3 6.3
2017-Nov-18 03:00N 29°57' W 093°10'3 6.8
2017-Nov-18 02:30N 29°59' W 093°13'3 5.4
2017-Nov-18 02:00N 30°02' W 093°15'3 5.9
2017-Nov-18 01:30N 30°04' W 093°16'2 3.6
2017-Nov-18 01:00N 30°05' W 093°18'1 1.5
2017-Nov-18 00:30N 30°06' W 093°18'0 0.0
2017-Nov-18 00:00N 30°06' W 093°18'0 0.0
2017-Nov-17 23:30N 30°06' W 093°18'0 0.0
2017-Nov-17 23:00N 30°06' W 093°18'0 0.0
2017-Nov-17 22:30N 30°06' W 093°18'0 0.0
2017-Nov-17 22:00N 30°06' W 093°18'0 0.0
2017-Nov-17 21:30N 30°06' W 093°18'0 0.0
2017-Nov-17 21:00N 30°06' W 093°18'0 0.0
2017-Nov-17 20:31N 30°06' W 093°18'2 3.5
2017-Nov-17 20:00N 30°07' W 093°20'3 6.6
2017-Nov-17 19:30N 30°10' W 093°19'3 6.4
2017-Nov-17 19:00N 30°12' W 093°17'2 4.2
2017-Nov-17 18:30N 30°14' W 093°15'2 3.0
2017-Nov-17 18:00N 30°15' W 093°14'1 1.7
2017-Nov-17 17:30N 30°15' W 093°14'2 3.4
2017-Nov-17 17:00N 30°15' W 093°12'0 0.0
2017-Nov-17 16:29N 30°15' W 093°12'0 0.0
2017-Nov-17 16:01N 30°15' W 093°12'0 0.0
2017-Nov-17 15:30N 30°15' W 093°12'0 0.0
2017-Nov-17 15:00N 30°15' W 093°12'0 0.0
2017-Nov-17 14:29N 30°15' W 093°12'0 0.0
2017-Nov-17 13:59N 30°15' W 093°12'0 0.0
2017-Nov-17 13:28N 30°15' W 093°12'0 0.0
2017-Nov-17 12:53N 30°15' W 093°12'0 0.0
2017-Nov-17 12:23N 30°15' W 093°12'0 0.0
2017-Nov-17 12:00N 30°15' W 093°12'0 0.0
2017-Nov-17 11:29N 30°15' W 093°12'0 0.0
2017-Nov-17 11:01N 30°15' W 093°12'0 0.0
2017-Nov-17 10:30N 30°15' W 093°12'0 0.0
2017-Nov-17 10:00N 30°15' W 093°12'0 0.0
2017-Nov-17 09:28N 30°15' W 093°12'0 0.0
2017-Nov-17 08:58N 30°15' W 093°12'0 0.0
2017-Nov-17 08:22N 30°15' W 093°12'0 0.0
2017-Nov-17 08:00N 30°15' W 093°12'0 0.0
2017-Nov-17 07:30N 30°15' W 093°12'0 0.0
2017-Nov-17 07:00N 30°15' W 093°12'0 0.0
2017-Nov-17 06:29N 30°15' W 093°12'0 0.0
2017-Nov-17 06:00N 30°15' W 093°12'0 0.0
2017-Nov-17 05:29N 30°15' W 093°12'0 0.0
2017-Nov-17 04:56N 30°15' W 093°12'0 0.0
2017-Nov-17 04:31N 30°15' W 093°12'0 0.9
2017-Nov-17 04:00N 30°15' W 093°12'1 2.3
2017-Nov-17 03:30N 30°15' W 093°14'1 2.4
2017-Nov-17 03:00N 30°14' W 093°15'2 4.4
2017-Nov-17 02:31N 30°12' W 093°16'4 7.0
2017-Nov-17 02:00N 30°10' W 093°19'4 7.1
2017-Nov-17 01:30N 30°07' W 093°20'3 5.1
2017-Nov-17 01:01N 30°05' W 093°18'1 1.4
2017-Nov-17 00:30N 30°05' W 093°17'1 2.3
2017-Nov-17 00:01N 30°04' W 093°16'3 6.1
2017-Nov-16 23:30N 30°01' W 093°14'3 6.1
2017-Nov-16 23:00N 29°59' W 093°12'3 6.8
2017-Nov-16 22:30N 29°56' W 093°10'4 6.7
2017-Nov-16 21:52N 29°56' W 093°05'0 0.0
2017-Nov-14 20:48N 29°56' W 093°05'2 5.6
2017-Nov-14 20:27N 29°56' W 093°07'3 5.9
2017-Nov-14 20:00N 29°57' W 093°10'3 6.3
2017-Nov-14 19:30N 29°59' W 093°12'3 5.8
2017-Nov-14 19:00N 30°02' W 093°14'2 4.1
2017-Nov-14 18:30N 30°03' W 093°16'2 4.9
2017-Nov-14 18:00N 30°05' W 093°17'1 1.7
2017-Nov-14 17:30N 30°06' W 093°18'0 0.5
2017-Nov-14 17:00N 30°06' W 093°18'0 0.0
2017-Nov-14 16:30N 30°06' W 093°18'0 0.0
2017-Nov-14 16:00N 30°06' W 093°18'2 3.0
2017-Nov-14 15:30N 30°06' W 093°20'3 6.5
2017-Nov-14 15:00N 30°10' W 093°20'3 6.5
2017-Nov-14 14:30N 30°12' W 093°17'  

Dump ship's entire track history